TAP1010 LPPT-LEMD
Flight info
| Callsign | TAP1010 |
|---|---|
| Flight time | 0h 46m |
| Altitude | 32000 |
| Route | ORVED DCT OGERO DCT ROLDO DCT RUKER Z409 TLD |
| Aircraft | A20N/M-SDE2E3FGHIRWXY/LB1 |
Departure
| Time | 2026-05-06 18:50 |
|---|---|
| Airport | Lisbon Humberto Delgado Airport (LPPT) |
Arrival
| Time | 2026-05-06 19:37 |
|---|---|
| Airport | Adolfo Suárez Madrid–Barajas Airport (LEMD) |
| Time | Latitude | Longitude | Altitude | Speed | Heading |
|---|---|---|---|---|---|
| 2026-05-06 18:38 | 38.76891 | -9.13051 | 337 ft | 0 kts | 78° |
| 2026-05-06 18:43 | 38.76889 | -9.13064 | 334 ft | 3 kts | 80° |
| 2026-05-06 18:43 | 38.76886 | -9.13089 | 333 ft | 3 kts | 86° |
| 2026-05-06 18:43 | 38.76886 | -9.13115 | 334 ft | 3 kts | 101° |
| 2026-05-06 18:44 | 38.76892 | -9.13138 | 334 ft | 3 kts | 141° |
| 2026-05-06 18:44 | 38.76900 | -9.13144 | 335 ft | 1 kts | 168° |
| 2026-05-06 18:46 | 38.76898 | -9.13144 | 335 ft | 2 kts | 168° |
| 2026-05-06 18:46 | 38.76868 | -9.13137 | 335 ft | 7 kts | 169° |
| 2026-05-06 18:46 | 38.76796 | -9.13136 | 338 ft | 13 kts | 216° |
| 2026-05-06 18:46 | 38.76766 | -9.13257 | 339 ft | 16 kts | 258° |
| 2026-05-06 18:47 | 38.76727 | -9.13395 | 345 ft | 17 kts | 228° |
| 2026-05-06 18:47 | 38.76650 | -9.13509 | 347 ft | 18 kts | 257° |
| 2026-05-06 18:47 | 38.76624 | -9.13670 | 345 ft | 19 kts | 258° |
| 2026-05-06 18:47 | 38.76596 | -9.13843 | 348 ft | 21 kts | 258° |
| 2026-05-06 18:48 | 38.76568 | -9.13991 | 352 ft | 16 kts | 246° |
| 2026-05-06 18:48 | 38.76502 | -9.14107 | 350 ft | 17 kts | 247° |
| 2026-05-06 18:48 | 38.76523 | -9.14261 | 338 ft | 15 kts | 291° |
| 2026-05-06 18:48 | 38.76548 | -9.14337 | 333 ft | 10 kts | 293° |
| 2026-05-06 18:49 | 38.76600 | -9.14403 | 335 ft | 12 kts | 356° |
| 2026-05-06 18:49 | 38.76665 | -9.14378 | 333 ft | 0 kts | 24° |
| 2026-05-06 18:49 | 38.76723 | -9.14346 | 337 ft | 27 kts | 22° |
| 2026-05-06 18:50 | 38.77108 | -9.14141 | 357 ft | 90 kts | 23° |
| 2026-05-06 18:50 | 38.77844 | -9.13748 | 363 ft | 137 kts | 23° |
| 2026-05-06 18:50 | 38.78814 | -9.13196 | 532 ft | 159 kts | 21° |
| 2026-05-06 18:50 | 38.79829 | -9.12626 | 1038 ft | 161 kts | 19° |
| 2026-05-06 18:51 | 38.80800 | -9.12056 | 1820 ft | 147 kts | 19° |
| 2026-05-06 18:51 | 38.81731 | -9.11444 | 2237 ft | 157 kts | 21° |
| 2026-05-06 18:51 | 38.82744 | -9.10741 | 2520 ft | 177 kts | 24° |
| 2026-05-06 18:51 | 38.83895 | -9.09893 | 2786 ft | 204 kts | 25° |
| 2026-05-06 18:52 | 38.85191 | -9.08907 | 3267 ft | 228 kts | 28° |
| 2026-05-06 18:52 | 38.86392 | -9.07421 | 3892 ft | 255 kts | 53° |
| 2026-05-06 18:52 | 38.87253 | -9.05374 | 4768 ft | 265 kts | 63° |
| 2026-05-06 18:52 | 38.88002 | -9.03184 | 5763 ft | 270 kts | 66° |
| 2026-05-06 18:53 | 38.88747 | -9.00959 | 6766 ft | 273 kts | 66° |
| 2026-05-06 18:53 | 38.89532 | -8.98708 | 7692 ft | 279 kts | 65° |
| 2026-05-06 18:53 | 38.90356 | -8.96432 | 8636 ft | 284 kts | 65° |
| 2026-05-06 18:53 | 38.91208 | -8.94128 | 9580 ft | 289 kts | 64° |
| 2026-05-06 18:54 | 38.92088 | -8.91766 | 10371 ft | 299 kts | 64° |
| 2026-05-06 18:54 | 38.93026 | -8.89259 | 10711 ft | 324 kts | 64° |
| 2026-05-06 18:54 | 38.94036 | -8.86554 | 11069 ft | 345 kts | 64° |
| 2026-05-06 18:54 | 38.95082 | -8.83749 | 11815 ft | 352 kts | 64° |
| 2026-05-06 18:55 | 38.96148 | -8.80883 | 12617 ft | 358 kts | 64° |
| 2026-05-06 18:55 | 38.97230 | -8.77970 | 13408 ft | 364 kts | 64° |
| 2026-05-06 18:55 | 38.98329 | -8.75011 | 14128 ft | 370 kts | 64° |
| 2026-05-06 18:55 | 38.99442 | -8.72008 | 14863 ft | 374 kts | 65° |
| 2026-05-06 18:56 | 39.00568 | -8.68970 | 15586 ft | 379 kts | 65° |
| 2026-05-06 18:56 | 39.01708 | -8.65894 | 16281 ft | 384 kts | 65° |
| 2026-05-06 18:56 | 39.02854 | -8.62779 | 17029 ft | 387 kts | 65° |
| 2026-05-06 18:56 | 39.04017 | -8.59635 | 17712 ft | 392 kts | 65° |
| 2026-05-06 18:57 | 39.05189 | -8.56460 | 18407 ft | 395 kts | 65° |
| 2026-05-06 18:57 | 39.06374 | -8.53249 | 19040 ft | 398 kts | 65° |
| 2026-05-06 18:57 | 39.07567 | -8.50012 | 19655 ft | 402 kts | 65° |
| 2026-05-06 18:57 | 39.08770 | -8.46743 | 20270 ft | 406 kts | 65° |
| 2026-05-06 18:58 | 39.09982 | -8.43446 | 20887 ft | 410 kts | 65° |
| 2026-05-06 18:58 | 39.11206 | -8.40111 | 21490 ft | 414 kts | 65° |
| 2026-05-06 18:58 | 39.12424 | -8.36789 | 22086 ft | 417 kts | 65° |
| 2026-05-06 18:58 | 39.13681 | -8.33355 | 22707 ft | 421 kts | 65° |
| 2026-05-06 18:59 | 39.14935 | -8.29927 | 23279 ft | 425 kts | 65° |
| 2026-05-06 18:59 | 39.16201 | -8.26461 | 23717 ft | 429 kts | 65° |
| 2026-05-06 18:59 | 39.17472 | -8.22978 | 23864 ft | 430 kts | 65° |
| 2026-05-06 18:59 | 39.18732 | -8.19519 | 24174 ft | 434 kts | 66° |
| 2026-05-06 19:00 | 39.19756 | -8.15865 | 24727 ft | 434 kts | 75° |
| 2026-05-06 19:00 | 39.20580 | -8.12105 | 25166 ft | 438 kts | 76° |
| 2026-05-06 19:00 | 39.21392 | -8.08304 | 25594 ft | 442 kts | 76° |
| 2026-05-06 19:00 | 39.21947 | -8.05717 | 25893 ft | 445 kts | 76° |
| 2026-05-06 19:01 | 39.23055 | -8.00602 | 26449 ft | 450 kts | 76° |
| 2026-05-06 19:01 | 39.23907 | -7.96706 | 26866 ft | 453 kts | 76° |
| 2026-05-06 19:01 | 39.24767 | -7.92778 | 27266 ft | 457 kts | 76° |
| 2026-05-06 19:01 | 39.25634 | -7.88816 | 27663 ft | 460 kts | 76° |
| 2026-05-06 19:02 | 39.26506 | -7.84821 | 28024 ft | 464 kts | 76° |
| 2026-05-06 19:02 | 39.27381 | -7.80801 | 28396 ft | 468 kts | 76° |
| 2026-05-06 19:02 | 39.28264 | -7.76742 | 28762 ft | 471 kts | 76° |
| 2026-05-06 19:02 | 39.29149 | -7.72660 | 29123 ft | 474 kts | 76° |
| 2026-05-06 19:03 | 39.30038 | -7.68550 | 29480 ft | 477 kts | 76° |
| 2026-05-06 19:03 | 39.30932 | -7.64413 | 29840 ft | 480 kts | 76° |
| 2026-05-06 19:03 | 39.31829 | -7.60255 | 30125 ft | 483 kts | 76° |
| 2026-05-06 19:03 | 39.32732 | -7.56060 | 30445 ft | 485 kts | 76° |
| 2026-05-06 19:04 | 39.33636 | -7.51849 | 30759 ft | 488 kts | 76° |
| 2026-05-06 19:04 | 39.34543 | -7.47617 | 31081 ft | 490 kts | 76° |
| 2026-05-06 19:04 | 39.35450 | -7.43378 | 31478 ft | 490 kts | 76° |
| 2026-05-06 19:04 | 39.36356 | -7.39136 | 31772 ft | 490 kts | 76° |
| 2026-05-06 19:05 | 39.37261 | -7.34893 | 31856 ft | 488 kts | 76° |
| 2026-05-06 19:05 | 39.39057 | -7.26438 | 31859 ft | 488 kts | 76° |
| 2026-05-06 19:06 | 39.40848 | -7.17978 | 31860 ft | 488 kts | 76° |
| 2026-05-06 19:06 | 39.42633 | -7.09511 | 31856 ft | 488 kts | 76° |
| 2026-05-06 19:07 | 39.44412 | -7.01043 | 31856 ft | 488 kts | 76° |
| 2026-05-06 19:07 | 39.46173 | -6.92624 | 31858 ft | 488 kts | 76° |
| 2026-05-06 19:08 | 39.47941 | -6.84133 | 31858 ft | 488 kts | 76° |
| 2026-05-06 19:08 | 39.49702 | -6.75642 | 31860 ft | 489 kts | 76° |
| 2026-05-06 19:09 | 39.51459 | -6.67143 | 31860 ft | 488 kts | 76° |
| 2026-05-06 19:09 | 39.52912 | -6.60088 | 31862 ft | 489 kts | 76° |
| 2026-05-06 19:10 | 39.54659 | -6.51572 | 31869 ft | 488 kts | 76° |
| 2026-05-06 19:10 | 39.56395 | -6.43076 | 31861 ft | 488 kts | 76° |
| 2026-05-06 19:11 | 39.58125 | -6.34569 | 31867 ft | 487 kts | 76° |
| 2026-05-06 19:11 | 39.59840 | -6.26076 | 31857 ft | 487 kts | 76° |
| 2026-05-06 19:12 | 39.61548 | -6.17575 | 31853 ft | 487 kts | 76° |
| 2026-05-06 19:12 | 39.63252 | -6.09084 | 31857 ft | 486 kts | 76° |
| 2026-05-06 19:13 | 39.64952 | -6.00591 | 31856 ft | 486 kts | 76° |
| 2026-05-06 19:13 | 39.66651 | -5.92111 | 31855 ft | 486 kts | 76° |
| 2026-05-06 19:14 | 39.68345 | -5.83615 | 31863 ft | 486 kts | 76° |
| 2026-05-06 19:14 | 39.70024 | -5.75133 | 31852 ft | 485 kts | 76° |
| 2026-05-06 19:15 | 39.71696 | -5.66640 | 31859 ft | 485 kts | 76° |
| 2026-05-06 19:15 | 39.73359 | -5.58159 | 31864 ft | 484 kts | 76° |
| 2026-05-06 19:16 | 39.75014 | -5.49682 | 31871 ft | 484 kts | 76° |
| 2026-05-06 19:16 | 39.76653 | -5.41249 | 31858 ft | 484 kts | 76° |
| 2026-05-06 19:17 | 39.78296 | -5.32765 | 31856 ft | 484 kts | 76° |
| 2026-05-06 19:17 | 39.79932 | -5.24276 | 31877 ft | 484 kts | 76° |
| 2026-05-06 19:18 | 39.81562 | -5.15782 | 31861 ft | 484 kts | 76° |
| 2026-05-06 19:18 | 39.83187 | -5.07284 | 31731 ft | 485 kts | 76° |
| 2026-05-06 19:18 | 39.83998 | -5.03028 | 31273 ft | 485 kts | 76° |
| 2026-05-06 19:19 | 39.84810 | -4.98760 | 30501 ft | 487 kts | 77° |
| 2026-05-06 19:19 | 39.85624 | -4.94471 | 29493 ft | 490 kts | 77° |
| 2026-05-06 19:19 | 39.86443 | -4.90143 | 28485 ft | 492 kts | 77° |
| 2026-05-06 19:19 | 39.87254 | -4.85847 | 27876 ft | 485 kts | 77° |
| 2026-05-06 19:20 | 39.87981 | -4.81603 | 27231 ft | 478 kts | 80° |
| 2026-05-06 19:20 | 39.88599 | -4.77351 | 26373 ft | 477 kts | 81° |
| 2026-05-06 19:20 | 39.89198 | -4.73123 | 25695 ft | 473 kts | 81° |
| 2026-05-06 19:20 | 39.89790 | -4.68942 | 25055 ft | 468 kts | 81° |
| 2026-05-06 19:21 | 39.90378 | -4.64792 | 24412 ft | 463 kts | 81° |
| 2026-05-06 19:21 | 39.90960 | -4.60691 | 23794 ft | 459 kts | 81° |
| 2026-05-06 19:21 | 39.91535 | -4.56625 | 23122 ft | 454 kts | 81° |
| 2026-05-06 19:21 | 39.92104 | -4.52607 | 22434 ft | 449 kts | 81° |
| 2026-05-06 19:22 | 39.92665 | -4.48625 | 21755 ft | 445 kts | 81° |
| 2026-05-06 19:22 | 39.93220 | -4.44683 | 21087 ft | 440 kts | 81° |
| 2026-05-06 19:22 | 39.93769 | -4.40772 | 20427 ft | 436 kts | 81° |
| 2026-05-06 19:22 | 39.94311 | -4.36903 | 19781 ft | 432 kts | 81° |
| 2026-05-06 19:23 | 39.94847 | -4.33068 | 19149 ft | 428 kts | 80° |
| 2026-05-06 19:23 | 39.95376 | -4.29268 | 18528 ft | 425 kts | 80° |
| 2026-05-06 19:23 | 39.95888 | -4.25584 | 17893 ft | 421 kts | 80° |
| 2026-05-06 19:23 | 39.96418 | -4.21763 | 17240 ft | 416 kts | 80° |
| 2026-05-06 19:24 | 39.96927 | -4.18084 | 16634 ft | 410 kts | 81° |
| 2026-05-06 19:24 | 39.97430 | -4.14444 | 16078 ft | 404 kts | 81° |
| 2026-05-06 19:24 | 39.97921 | -4.10872 | 15540 ft | 398 kts | 81° |
| 2026-05-06 19:24 | 39.98405 | -4.07352 | 15018 ft | 392 kts | 81° |
| 2026-05-06 19:25 | 39.98881 | -4.03872 | 14488 ft | 387 kts | 81° |
| 2026-05-06 19:25 | 39.99606 | -4.00528 | 13921 ft | 384 kts | 69° |
| 2026-05-06 19:25 | 40.00625 | -3.97326 | 13395 ft | 379 kts | 68° |
| 2026-05-06 19:25 | 40.01647 | -3.94188 | 12876 ft | 374 kts | 67° |
| 2026-05-06 19:26 | 40.02652 | -3.91094 | 12431 ft | 366 kts | 68° |
| 2026-05-06 19:26 | 40.03634 | -3.88050 | 11951 ft | 361 kts | 68° |
| 2026-05-06 19:26 | 40.04596 | -3.85048 | 11444 ft | 357 kts | 68° |
| 2026-05-06 19:26 | 40.05546 | -3.82074 | 10942 ft | 353 kts | 68° |
| 2026-05-06 19:27 | 40.06483 | -3.79131 | 10474 ft | 349 kts | 68° |
| 2026-05-06 19:27 | 40.07399 | -3.76253 | 10295 ft | 336 kts | 68° |
| 2026-05-06 19:27 | 40.08274 | -3.73498 | 10161 ft | 322 kts | 68° |
| 2026-05-06 19:27 | 40.09112 | -3.70858 | 10043 ft | 308 kts | 68° |
| 2026-05-06 19:28 | 40.09917 | -3.68321 | 9831 ft | 299 kts | 68° |
| 2026-05-06 19:28 | 40.10708 | -3.65822 | 9426 ft | 296 kts | 68° |
| 2026-05-06 19:28 | 40.11491 | -3.63349 | 9066 ft | 293 kts | 68° |
| 2026-05-06 19:28 | 40.12254 | -3.60938 | 8702 ft | 289 kts | 68° |
| 2026-05-06 19:29 | 40.13026 | -3.58495 | 8345 ft | 285 kts | 68° |
| 2026-05-06 19:29 | 40.13959 | -3.56266 | 7953 ft | 283 kts | 49° |
| 2026-05-06 19:29 | 40.15443 | -3.54602 | 7772 ft | 284 kts | 38° |
| 2026-05-06 19:29 | 40.17022 | -3.52986 | 7419 ft | 291 kts | 38° |
| 2026-05-06 19:30 | 40.18613 | -3.51346 | 7105 ft | 289 kts | 38° |
| 2026-05-06 19:30 | 40.19931 | -3.49982 | 6887 ft | 285 kts | 38° |
| 2026-05-06 19:30 | 40.21475 | -3.48377 | 6518 ft | 282 kts | 39° |
| 2026-05-06 19:30 | 40.23008 | -3.46781 | 6138 ft | 281 kts | 39° |
| 2026-05-06 19:31 | 40.24529 | -3.45195 | 5750 ft | 279 kts | 39° |
| 2026-05-06 19:31 | 40.26039 | -3.43620 | 5352 ft | 277 kts | 39° |
| 2026-05-06 19:31 | 40.28976 | -3.40553 | 5005 ft | 258 kts | 39° |
| 2026-05-06 19:32 | 40.30401 | -3.39266 | 4997 ft | 242 kts | 22° |
| 2026-05-06 19:32 | 40.31998 | -3.39030 | 5000 ft | 227 kts | 350° |
| 2026-05-06 19:32 | 40.33492 | -3.39743 | 5003 ft | 231 kts | 331° |
| 2026-05-06 19:32 | 40.34789 | -3.40859 | 4977 ft | 216 kts | 324° |
| 2026-05-06 19:33 | 40.35968 | -3.42049 | 4759 ft | 212 kts | 322° |
| 2026-05-06 19:33 | 40.37103 | -3.43197 | 4480 ft | 199 kts | 323° |
| 2026-05-06 19:33 | 40.38155 | -3.44266 | 4200 ft | 184 kts | 323° |
| 2026-05-06 19:33 | 40.39115 | -3.45239 | 3973 ft | 164 kts | 323° |
| 2026-05-06 19:34 | 40.39969 | -3.46107 | 3757 ft | 148 kts | 323° |
| 2026-05-06 19:34 | 40.40758 | -3.46907 | 3569 ft | 143 kts | 323° |
| 2026-05-06 19:34 | 40.41427 | -3.47587 | 3412 ft | 142 kts | 323° |
| 2026-05-06 19:34 | 40.42117 | -3.48287 | 3236 ft | 142 kts | 323° |
| 2026-05-06 19:35 | 40.42760 | -3.48941 | 3075 ft | 141 kts | 323° |
| 2026-05-06 19:35 | 40.43532 | -3.49725 | 2876 ft | 140 kts | 322° |
| 2026-05-06 19:35 | 40.44301 | -3.50506 | 2680 ft | 140 kts | 322° |
| 2026-05-06 19:35 | 40.45069 | -3.51287 | 2491 ft | 140 kts | 321° |
| 2026-05-06 19:36 | 40.45841 | -3.52072 | 2305 ft | 141 kts | 321° |
| 2026-05-06 19:36 | 40.46611 | -3.52858 | 2123 ft | 140 kts | 321° |
| 2026-05-06 19:36 | 40.47382 | -3.53642 | 1939 ft | 141 kts | 322° |
| 2026-05-06 19:36 | 40.48082 | -3.54351 | 1917 ft | 103 kts | 322° |
| 2026-05-06 19:37 | 40.48512 | -3.54793 | 1926 ft | 65 kts | 322° |
| 2026-05-06 19:37 | 40.48745 | -3.55065 | 1934 ft | 30 kts | 304° |
| 2026-05-06 19:37 | 40.48823 | -3.55282 | 1937 ft | 23 kts | 294° |
| 2026-05-06 19:37 | 40.48864 | -3.55401 | 1938 ft | 21 kts | 297° |
| 2026-05-06 19:38 | 40.49008 | -3.55582 | 1942 ft | 22 kts | 322° |
| 2026-05-06 19:38 | 40.49128 | -3.55705 | 1946 ft | 22 kts | 322° |
| 2026-05-06 19:38 | 40.49250 | -3.55830 | 1949 ft | 22 kts | 322° |
| 2026-05-06 19:38 | 40.49371 | -3.55953 | 1952 ft | 21 kts | 323° |
| 2026-05-06 19:39 | 40.49487 | -3.56068 | 1953 ft | 21 kts | 323° |
| 2026-05-06 19:39 | 40.49556 | -3.56194 | 1955 ft | 17 kts | 274° |
| 2026-05-06 19:39 | 40.49556 | -3.56353 | 1958 ft | 17 kts | 270° |
| 2026-05-06 19:39 | 40.49556 | -3.56495 | 1963 ft | 12 kts | 277° |
| 2026-05-06 19:40 | 40.49604 | -3.56577 | 1965 ft | 11 kts | 313° |
| 2026-05-06 19:40 | 40.49622 | -3.56654 | 1968 ft | 7 kts | 267° |
| 2026-05-06 19:40 | 40.49622 | -3.56664 | 1969 ft | 0 kts | 267° |